Terminal Aerodrome Forecast
Issued by NWS Cleveland, OH

Home | Current Version | Previous Version | Text Only | Print | Product List | Glossary On
Versions: 1 2 3 4 5 6 7 8 9 10 11 12 13 14 15
000
FTUS41 KCLE 050500 RRA
TAFYNG
TAF
KYNG 050543Z 0506/0606 22005KT 6SM BR SCT030 BKN250
     FM050800 VRB03KT 4SM BR SCT035 BKN200
      TEMPO 0508/0511 2SM BR
     FM051200 07004KT P6SM VCSH BKN060 OVC120
     FM051600 VRB05KT P6SM BKN050 OVC100
     FM052100 04005KT P6SM -SHRA BKN035 OVC100=

USA.gov is the U.S. government's official web portal to all federal, state and local government web resources and services.